Rechercher aéroport 
image banner adimage banner adimage banner ad
image banner ad

39CA - Sce Palm Springs District

Situé à Cathedral City, United States

ICAO - 39CA, IATA -

Données fournies par Airmate  

Information générale

Coordonnées: N33°47'12" W116°27'52"
Élévation : 300 feet MSL.
Variation magnétique : 14° East
Voir autres Aéroports à California

Données opérationnelles

Special qualification required
Heure actuelle UTC:
Heure actuelle locale:
Météo à : KPSP - Palm Springs Intl ( 6 km )
METAR: KPSP 210153Z 12007KT 10SM CLR 36/06 A2987 RMK AO2 SLP111 T03560061
TAF: KPSP 202324Z 2100/2124 12007KT P6SM SKC FM210300 33005KT P6SM SKC FM211900 12007KT P6SM SKC
Voir NOTAMs / SUP AIP / TFR affectant cet aéroport [VIEW]
Fréquences de communication: [VIEW]

Pistes:

Coordonnées de l'aéroport

Adresse: Cathedral City United States

Vue satellite de 39CA